West Byfleet, United Kingdom
Current Conditions -  °F | °C
As of 11:50 PM on Saturday 22 Nov 2014 (Local Time) from EGLL Reporting Station
Drizzle Drizzle  
Wind Chill: 55°   Ceiling: 800
Heat Index: 55°   Visibility: 0.87mi
Dew Point: 55°   Wind: 2mph
Humidity: 100%   Direction: NA
Pressure: 29.97"   Gusts: NA
Location:  51.33°N, 0.51°W
Report Text: EGLL 222350Z VRB02KT 1400 DZ FEW002 BKN008 13/13 Q1015 TEMPO 2000 -DZ
Loading
Personal Weather Stations






























Interactive Weather Map New forecast layout! Learn more

10-Day Weather Forecast

Advertisements
Track Severe Weather on mobile